sensor_id;sensor_type;location;lat;lon;timestamp;P1;durP1;ratioP1;P2;durP2;ratioP2
75377;SDS011;63959;51.960;5.886;2023-04-24T00:01:12;11.05;;;5.38;;
75377;SDS011;63959;51.960;5.886;2023-04-24T00:03:40;7.88;;;4.22;;
75377;SDS011;63959;51.960;5.886;2023-04-24T00:06:09;12.23;;;6.15;;
75377;SDS011;63959;51.960;5.886;2023-04-24T00:08:38;10.02;;;5.63;;
75377;SDS011;63959;51.960;5.886;2023-04-24T00:11:06;11.45;;;6.70;;
75377;SDS011;63959;51.960;5.886;2023-04-24T00:13:38;9.13;;;5.43;;
75377;SDS011;63959;51.960;5.886;2023-04-24T00:16:07;11.05;;;6.13;;
75377;SDS011;63959;51.960;5.886;2023-04-24T00:18:35;10.40;;;6.00;;
75377;SDS011;63959;51.960;5.886;2023-04-24T00:21:04;11.38;;;5.85;;
75377;SDS011;63959;51.960;5.886;2023-04-24T00:23:33;8.30;;;4.45;;
75377;SDS011;63959;51.960;5.886;2023-04-24T00:26:02;7.30;;;4.10;;
75377;SDS011;63959;51.960;5.886;2023-04-24T00:28:31;7.05;;;3.63;;
75377;SDS011;63959;51.960;5.886;2023-04-24T00:31:02;5.47;;;2.88;;
75377;SDS011;63959;51.960;5.886;2023-04-24T00:33:31;5.53;;;2.85;;
75377;SDS011;63959;51.960;5.886;2023-04-24T00:35:59;5.93;;;2.85;;
75377;SDS011;63959;51.960;5.886;2023-04-24T00:38:28;6.50;;;2.85;;
75377;SDS011;63959;51.960;5.886;2023-04-24T00:40:57;5.22;;;2.80;;
75377;SDS011;63959;51.960;5.886;2023-04-24T00:43:25;5.18;;;2.65;;
75377;SDS011;63959;51.960;5.886;2023-04-24T00:45:54;6.05;;;2.50;;
75377;SDS011;63959;51.960;5.886;2023-04-24T00:48:25;5.30;;;2.20;;
75377;SDS011;63959;51.960;5.886;2023-04-24T00:50:54;5.35;;;2.80;;
75377;SDS011;63959;51.960;5.886;2023-04-24T00:53:24;4.80;;;2.33;;
75377;SDS011;63959;51.960;5.886;2023-04-24T00:55:53;5.32;;;2.20;;
75377;SDS011;63959;51.960;5.886;2023-04-24T00:58:24;5.28;;;2.70;;
75377;SDS011;63959;51.960;5.886;2023-04-24T01:00:53;5.75;;;3.05;;
75377;SDS011;63959;51.960;5.886;2023-04-24T01:03:26;8.00;;;4.43;;
75377;SDS011;63959;51.960;5.886;2023-04-24T01:05:57;12.73;;;6.15;;
75377;SDS011;63959;51.960;5.886;2023-04-24T01:08:26;8.75;;;4.43;;
75377;SDS011;63959;51.960;5.886;2023-04-24T01:10:56;16.17;;;6.95;;
75377;SDS011;63959;51.960;5.886;2023-04-24T01:13:25;13.18;;;7.50;;
75377;SDS011;63959;51.960;5.886;2023-04-24T01:15:54;16.48;;;8.88;;
75377;SDS011;63959;51.960;5.886;2023-04-24T01:18:22;16.55;;;9.13;;
75377;SDS011;63959;51.960;5.886;2023-04-24T01:20:56;20.42;;;10.07;;
75377;SDS011;63959;51.960;5.886;2023-04-24T01:23:28;19.95;;;10.32;;
75377;SDS011;63959;51.960;5.886;2023-04-24T01:25:57;27.00;;;13.23;;
75377;SDS011;63959;51.960;5.886;2023-04-24T01:28:26;26.70;;;13.85;;
75377;SDS011;63959;51.960;5.886;2023-04-24T01:30:54;19.63;;;10.40;;
75377;SDS011;63959;51.960;5.886;2023-04-24T01:33:25;18.48;;;10.07;;
75377;SDS011;63959;51.960;5.886;2023-04-24T01:35:54;21.23;;;10.82;;
75377;SDS011;63959;51.960;5.886;2023-04-24T01:38:23;26.20;;;13.43;;
75377;SDS011;63959;51.960;5.886;2023-04-24T01:40:54;24.60;;;12.73;;
75377;SDS011;63959;51.960;5.886;2023-04-24T01:43:27;22.15;;;11.40;;
75377;SDS011;63959;51.960;5.886;2023-04-24T01:45:57;20.40;;;10.68;;
75377;SDS011;63959;51.960;5.886;2023-04-24T01:48:26;25.23;;;13.20;;
75377;SDS011;63959;51.960;5.886;2023-04-24T01:50:56;21.58;;;11.40;;
75377;SDS011;63959;51.960;5.886;2023-04-24T01:53:24;25.55;;;11.88;;
75377;SDS011;63959;51.960;5.886;2023-04-24T01:55:56;24.15;;;12.18;;
75377;SDS011;63959;51.960;5.886;2023-04-24T01:58:25;20.58;;;10.52;;
75377;SDS011;63959;51.960;5.886;2023-04-24T02:00:55;24.83;;;12.40;;
75377;SDS011;63959;51.960;5.886;2023-04-24T02:03:24;21.35;;;11.32;;
75377;SDS011;63959;51.960;5.886;2023-04-24T02:05:54;19.92;;;10.82;;
75377;SDS011;63959;51.960;5.886;2023-04-24T02:08:24;24.17;;;13.18;;
75377;SDS011;63959;51.960;5.886;2023-04-24T02:10:52;22.73;;;13.35;;
75377;SDS011;63959;51.960;5.886;2023-04-24T02:13:24;25.95;;;14.27;;
75377;SDS011;63959;51.960;5.886;2023-04-24T02:15:52;24.45;;;13.15;;
75377;SDS011;63959;51.960;5.886;2023-04-24T02:18:22;24.67;;;13.55;;
75377;SDS011;63959;51.960;5.886;2023-04-24T02:20:51;25.08;;;13.57;;
75377;SDS011;63959;51.960;5.886;2023-04-24T02:23:23;23.00;;;12.57;;
75377;SDS011;63959;51.960;5.886;2023-04-24T02:25:52;29.02;;;15.13;;
75377;SDS011;63959;51.960;5.886;2023-04-24T02:28:25;26.67;;;14.88;;
75377;SDS011;63959;51.960;5.886;2023-04-24T02:30:54;28.83;;;15.13;;
75377;SDS011;63959;51.960;5.886;2023-04-24T02:33:23;26.60;;;14.90;;
75377;SDS011;63959;51.960;5.886;2023-04-24T02:35:51;24.60;;;14.20;;
75377;SDS011;63959;51.960;5.886;2023-04-24T02:38:20;25.85;;;13.65;;
75377;SDS011;63959;51.960;5.886;2023-04-24T02:40:49;28.23;;;14.63;;
75377;SDS011;63959;51.960;5.886;2023-04-24T02:43:17;25.30;;;12.05;;
75377;SDS011;63959;51.960;5.886;2023-04-24T02:45:49;23.50;;;12.57;;
75377;SDS011;63959;51.960;5.886;2023-04-24T02:48:18;27.05;;;14.07;;
75377;SDS011;63959;51.960;5.886;2023-04-24T02:50:47;27.70;;;14.00;;
75377;SDS011;63959;51.960;5.886;2023-04-24T02:53:16;27.95;;;13.85;;
75377;SDS011;63959;51.960;5.886;2023-04-24T02:55:45;24.95;;;13.50;;
75377;SDS011;63959;51.960;5.886;2023-04-24T02:58:14;25.80;;;12.93;;
75377;SDS011;63959;51.960;5.886;2023-04-24T03:00:45;24.58;;;12.52;;
75377;SDS011;63959;51.960;5.886;2023-04-24T03:03:16;21.90;;;11.88;;
75377;SDS011;63959;51.960;5.886;2023-04-24T03:05:45;23.88;;;12.63;;
75377;SDS011;63959;51.960;5.886;2023-04-24T03:08:14;23.25;;;12.50;;
75377;SDS011;63959;51.960;5.886;2023-04-24T03:10:43;26.95;;;14.75;;
75377;SDS011;63959;51.960;5.886;2023-04-24T03:13:13;23.83;;;12.40;;
75377;SDS011;63959;51.960;5.886;2023-04-24T03:15:43;19.17;;;9.90;;
75377;SDS011;63959;51.960;5.886;2023-04-24T03:18:17;22.73;;;11.32;;
75377;SDS011;63959;51.960;5.886;2023-04-24T03:20:47;22.92;;;11.93;;
75377;SDS011;63959;51.960;5.886;2023-04-24T03:23:16;17.27;;;9.18;;
75377;SDS011;63959;51.960;5.886;2023-04-24T03:25:45;25.95;;;13.00;;
75377;SDS011;63959;51.960;5.886;2023-04-24T03:28:14;26.02;;;14.40;;
75377;SDS011;63959;51.960;5.886;2023-04-24T03:30:48;22.95;;;12.55;;
75377;SDS011;63959;51.960;5.886;2023-04-24T03:33:20;25.25;;;13.15;;
75377;SDS011;63959;51.960;5.886;2023-04-24T03:35:57;30.58;;;14.88;;
75377;SDS011;63959;51.960;5.886;2023-04-24T03:38:34;27.23;;;14.15;;
75377;SDS011;63959;51.960;5.886;2023-04-24T03:41:18;29.73;;;14.07;;
75377;SDS011;63959;51.960;5.886;2023-04-24T03:43:51;30.35;;;15.82;;
75377;SDS011;63959;51.960;5.886;2023-04-24T03:46:20;35.03;;;18.05;;
75377;SDS011;63959;51.960;5.886;2023-04-24T03:48:58;44.40;;;22.73;;
75377;SDS011;63959;51.960;5.886;2023-04-24T03:51:31;30.08;;;16.20;;
75377;SDS011;63959;51.960;5.886;2023-04-24T03:54:12;27.60;;;16.05;;
75377;SDS011;63959;51.960;5.886;2023-04-24T03:56:41;35.75;;;18.60;;
75377;SDS011;63959;51.960;5.886;2023-04-24T03:59:09;34.63;;;18.10;;
75377;SDS011;63959;51.960;5.886;2023-04-24T04:01:40;44.95;;;20.38;;
75377;SDS011;63959;51.960;5.886;2023-04-24T04:04:20;38.55;;;19.05;;
75377;SDS011;63959;51.960;5.886;2023-04-24T04:06:50;36.88;;;19.30;;
75377;SDS011;63959;51.960;5.886;2023-04-24T04:09:19;43.95;;;21.42;;
75377;SDS011;63959;51.960;5.886;2023-04-24T04:11:48;29.63;;;15.73;;
75377;SDS011;63959;51.960;5.886;2023-04-24T04:14:17;47.97;;;22.60;;
75377;SDS011;63959;51.960;5.886;2023-04-24T04:16:47;30.42;;;16.48;;
75377;SDS011;63959;51.960;5.886;2023-04-24T04:19:16;35.97;;;17.73;;
75377;SDS011;63959;51.960;5.886;2023-04-24T04:21:48;31.33;;;17.15;;
75377;SDS011;63959;51.960;5.886;2023-04-24T04:24:43;38.75;;;20.63;;
75377;SDS011;63959;51.960;5.886;2023-04-24T04:27:13;37.25;;;20.33;;
75377;SDS011;63959;51.960;5.886;2023-04-24T04:29:51;28.85;;;15.80;;
75377;SDS011;63959;51.960;5.886;2023-04-24T04:32:22;29.58;;;16.85;;
75377;SDS011;63959;51.960;5.886;2023-04-24T04:34:51;33.15;;;17.75;;
75377;SDS011;63959;51.960;5.886;2023-04-24T04:37:25;27.45;;;15.80;;
75377;SDS011;63959;51.960;5.886;2023-04-24T04:40:12;32.53;;;15.82;;
75377;SDS011;63959;51.960;5.886;2023-04-24T04:42:57;31.65;;;16.10;;
75377;SDS011;63959;51.960;5.886;2023-04-24T04:45:30;31.25;;;16.30;;
75377;SDS011;63959;51.960;5.886;2023-04-24T04:48:19;27.70;;;15.50;;
75377;SDS011;63959;51.960;5.886;2023-04-24T04:50:49;29.50;;;15.15;;
75377;SDS011;63959;51.960;5.886;2023-04-24T04:53:22;24.98;;;13.95;;
75377;SDS011;63959;51.960;5.886;2023-04-24T04:55:51;28.52;;;15.32;;
75377;SDS011;63959;51.960;5.886;2023-04-24T04:58:25;28.73;;;14.07;;
75377;SDS011;63959;51.960;5.886;2023-04-24T05:00:57;24.30;;;14.07;;
75377;SDS011;63959;51.960;5.886;2023-04-24T05:03:33;30.25;;;15.95;;
75377;SDS011;63959;51.960;5.886;2023-04-24T05:06:08;31.23;;;15.25;;
75377;SDS011;63959;51.960;5.886;2023-04-24T05:08:41;28.05;;;14.55;;
75377;SDS011;63959;51.960;5.886;2023-04-24T05:11:18;26.73;;;14.70;;
75377;SDS011;63959;51.960;5.886;2023-04-24T05:13:47;30.40;;;14.88;;
75377;SDS011;63959;51.960;5.886;2023-04-24T05:16:23;30.52;;;14.73;;
75377;SDS011;63959;51.960;5.886;2023-04-24T05:18:53;27.27;;;14.07;;
75377;SDS011;63959;51.960;5.886;2023-04-24T05:21:28;33.13;;;17.30;;
75377;SDS011;63959;51.960;5.886;2023-04-24T07:49:22;4.90;;;1.80;;
75377;SDS011;63959;51.960;5.886;2023-04-24T07:51:50;6.72;;;3.08;;
75377;SDS011;63959;51.960;5.886;2023-04-24T07:54:19;7.68;;;3.22;;
75377;SDS011;63959;51.960;5.886;2023-04-24T07:56:48;9.50;;;4.22;;
75377;SDS011;63959;51.960;5.886;2023-04-24T07:59:16;10.05;;;4.85;;
75377;SDS011;63959;51.960;5.886;2023-04-24T08:01:45;10.30;;;5.53;;
75377;SDS011;63959;51.960;5.886;2023-04-24T08:04:14;10.68;;;5.82;;
75377;SDS011;63959;51.960;5.886;2023-04-24T08:06:46;12.80;;;6.88;;
75377;SDS011;63959;51.960;5.886;2023-04-24T08:09:15;12.60;;;6.22;;
75377;SDS011;63959;51.960;5.886;2023-04-24T08:11:44;16.48;;;6.78;;
75377;SDS011;63959;51.960;5.886;2023-04-24T08:14:13;15.70;;;7.18;;
75377;SDS011;63959;51.960;5.886;2023-04-24T08:16:44;15.45;;;7.30;;
75377;SDS011;63959;51.960;5.886;2023-04-24T08:19:12;15.32;;;7.43;;
75377;SDS011;63959;51.960;5.886;2023-04-24T08:21:41;17.13;;;7.57;;
75377;SDS011;63959;51.960;5.886;2023-04-24T08:24:12;12.50;;;6.57;;
75377;SDS011;63959;51.960;5.886;2023-04-24T08:26:42;14.63;;;7.03;;
75377;SDS011;63959;51.960;5.886;2023-04-24T08:29:11;12.30;;;5.53;;
75377;SDS011;63959;51.960;5.886;2023-04-24T08:31:40;14.73;;;5.97;;
75377;SDS011;63959;51.960;5.886;2023-04-24T08:34:10;13.68;;;7.13;;
75377;SDS011;63959;51.960;5.886;2023-04-24T08:36:40;16.77;;;8.32;;
75377;SDS011;63959;51.960;5.886;2023-04-24T08:39:09;14.23;;;7.40;;
75377;SDS011;63959;51.960;5.886;2023-04-24T08:41:41;15.88;;;7.05;;
75377;SDS011;63959;51.960;5.886;2023-04-24T08:44:11;15.88;;;6.82;;
75377;SDS011;63959;51.960;5.886;2023-04-24T08:46:41;13.73;;;6.68;;
75377;SDS011;63959;51.960;5.886;2023-04-24T08:49:13;20.50;;;8.32;;
75377;SDS011;63959;51.960;5.886;2023-04-24T08:51:42;16.38;;;7.30;;
75377;SDS011;63959;51.960;5.886;2023-04-24T08:54:12;16.65;;;7.80;;
75377;SDS011;63959;51.960;5.886;2023-04-24T08:56:44;18.10;;;7.68;;
75377;SDS011;63959;51.960;5.886;2023-04-24T08:59:13;15.68;;;7.68;;
75377;SDS011;63959;51.960;5.886;2023-04-24T09:01:42;13.93;;;7.00;;
75377;SDS011;63959;51.960;5.886;2023-04-24T09:04:13;11.65;;;5.35;;
75377;SDS011;63959;51.960;5.886;2023-04-24T09:06:43;10.73;;;5.03;;
75377;SDS011;63959;51.960;5.886;2023-04-24T09:09:14;12.77;;;4.72;;
75377;SDS011;63959;51.960;5.886;2023-04-24T09:11:47;10.90;;;3.85;;
75377;SDS011;63959;51.960;5.886;2023-04-24T09:14:19;10.45;;;4.00;;
75377;SDS011;63959;51.960;5.886;2023-04-24T09:16:49;11.60;;;3.70;;
75377;SDS011;63959;51.960;5.886;2023-04-24T09:19:17;13.55;;;4.10;;
75377;SDS011;63959;51.960;5.886;2023-04-24T09:21:48;13.75;;;4.47;;
75377;SDS011;63959;51.960;5.886;2023-04-24T09:24:17;9.38;;;3.80;;
75377;SDS011;63959;51.960;5.886;2023-04-24T09:26:55;15.45;;;3.85;;
75377;SDS011;63959;51.960;5.886;2023-04-24T09:29:27;16.17;;;4.35;;
75377;SDS011;63959;51.960;5.886;2023-04-24T09:31:55;11.25;;;3.60;;
75377;SDS011;63959;51.960;5.886;2023-04-24T09:34:25;11.93;;;3.50;;
75377;SDS011;63959;51.960;5.886;2023-04-24T09:36:55;8.30;;;2.97;;
75377;SDS011;63959;51.960;5.886;2023-04-24T09:39:24;17.35;;;3.97;;
75377;SDS011;63959;51.960;5.886;2023-04-24T09:41:56;12.25;;;3.70;;
75377;SDS011;63959;51.960;5.886;2023-04-24T09:44:26;10.30;;;3.30;;
75377;SDS011;63959;51.960;5.886;2023-04-24T09:46:55;11.80;;;3.72;;
75377;SDS011;63959;51.960;5.886;2023-04-24T09:49:25;9.30;;;2.80;;
75377;SDS011;63959;51.960;5.886;2023-04-24T09:52:02;10.05;;;2.88;;
75377;SDS011;63959;51.960;5.886;2023-04-24T09:54:31;9.65;;;3.35;;
75377;SDS011;63959;51.960;5.886;2023-04-24T09:57:04;10.40;;;2.90;;
75377;SDS011;63959;51.960;5.886;2023-04-24T09:59:33;9.07;;;2.50;;
75377;SDS011;63959;51.960;5.886;2023-04-24T10:02:02;12.32;;;3.33;;
75377;SDS011;63959;51.960;5.886;2023-04-24T10:04:31;10.00;;;2.55;;
75377;SDS011;63959;51.960;5.886;2023-04-24T10:06:59;10.13;;;2.72;;
75377;SDS011;63959;51.960;5.886;2023-04-24T10:09:32;10.63;;;2.38;;
75377;SDS011;63959;51.960;5.886;2023-04-24T10:12:01;6.75;;;2.40;;
75377;SDS011;63959;51.960;5.886;2023-04-24T10:14:32;8.77;;;2.55;;
75377;SDS011;63959;51.960;5.886;2023-04-24T10:17:01;8.30;;;2.40;;
75377;SDS011;63959;51.960;5.886;2023-04-24T10:19:31;14.82;;;2.70;;
75377;SDS011;63959;51.960;5.886;2023-04-24T10:22:01;11.23;;;3.65;;
75377;SDS011;63959;51.960;5.886;2023-04-24T10:24:30;12.68;;;2.70;;
75377;SDS011;63959;51.960;5.886;2023-04-24T10:27:00;10.15;;;2.38;;
75377;SDS011;63959;51.960;5.886;2023-04-24T10:29:33;9.43;;;2.70;;
75377;SDS011;63959;51.960;5.886;2023-04-24T10:32:04;11.27;;;2.53;;
75377;SDS011;63959;51.960;5.886;2023-04-24T10:34:35;8.18;;;2.90;;
75377;SDS011;63959;51.960;5.886;2023-04-24T10:37:04;9.50;;;2.78;;
75377;SDS011;63959;51.960;5.886;2023-04-24T10:39:32;9.57;;;2.72;;
75377;SDS011;63959;51.960;5.886;2023-04-24T10:42:11;10.98;;;2.70;;
75377;SDS011;63959;51.960;5.886;2023-04-24T10:44:44;12.43;;;3.03;;
75377;SDS011;63959;51.960;5.886;2023-04-24T10:47:15;9.73;;;2.20;;
75377;SDS011;63959;51.960;5.886;2023-04-24T10:49:44;7.72;;;2.33;;
75377;SDS011;63959;51.960;5.886;2023-04-24T10:52:13;8.85;;;2.45;;
75377;SDS011;63959;51.960;5.886;2023-04-24T10:54:44;4.85;;;1.50;;
75377;SDS011;63959;51.960;5.886;2023-04-24T10:57:28;6.03;;;1.80;;
75377;SDS011;63959;51.960;5.886;2023-04-24T11:00:15;6.47;;;2.10;;
75377;SDS011;63959;51.960;5.886;2023-04-24T11:02:45;7.05;;;2.08;;
75377;SDS011;63959;51.960;5.886;2023-04-24T11:05:18;8.10;;;2.25;;
75377;SDS011;63959;51.960;5.886;2023-04-24T11:10:31;6.97;;;1.70;;
75377;SDS011;63959;51.960;5.886;2023-04-24T11:12:59;5.63;;;1.60;;
75377;SDS011;63959;51.960;5.886;2023-04-24T11:15:32;6.40;;;1.40;;
75377;SDS011;63959;51.960;5.886;2023-04-24T11:18:01;6.60;;;1.50;;
75377;SDS011;63959;51.960;5.886;2023-04-24T11:20:30;3.80;;;1.33;;
75377;SDS011;63959;51.960;5.886;2023-04-24T11:23:03;6.57;;;1.50;;
75377;SDS011;63959;51.960;5.886;2023-04-24T11:25:32;5.05;;;1.52;;
75377;SDS011;63959;51.960;5.886;2023-04-24T11:28:04;4.25;;;1.10;;
75377;SDS011;63959;51.960;5.886;2023-04-24T11:30:36;5.85;;;1.45;;
75377;SDS011;63959;51.960;5.886;2023-04-24T11:33:08;5.28;;;1.20;;
75377;SDS011;63959;51.960;5.886;2023-04-24T11:35:39;6.38;;;1.35;;
75377;SDS011;63959;51.960;5.886;2023-04-24T11:38:07;4.15;;;1.00;;
75377;SDS011;63959;51.960;5.886;2023-04-24T11:40:38;6.00;;;1.15;;
75377;SDS011;63959;51.960;5.886;2023-04-24T11:43:06;5.45;;;0.90;;
75377;SDS011;63959;51.960;5.886;2023-04-24T11:45:38;3.30;;;0.90;;
75377;SDS011;63959;51.960;5.886;2023-04-24T11:48:18;3.25;;;0.93;;
75377;SDS011;63959;51.960;5.886;2023-04-24T11:50:46;3.72;;;1.00;;
75377;SDS011;63959;51.960;5.886;2023-04-24T11:53:16;4.22;;;1.75;;
75377;SDS011;63959;51.960;5.886;2023-04-24T11:55:47;5.20;;;0.98;;
75377;SDS011;63959;51.960;5.886;2023-04-24T11:58:15;3.47;;;0.95;;
75377;SDS011;63959;51.960;5.886;2023-04-24T12:00:57;4.55;;;1.00;;
75377;SDS011;63959;51.960;5.886;2023-04-24T12:03:26;3.70;;;1.10;;
75377;SDS011;63959;51.960;5.886;2023-04-24T12:06:04;3.08;;;1.00;;
75377;SDS011;63959;51.960;5.886;2023-04-24T12:08:33;5.35;;;1.13;;
75377;SDS011;63959;51.960;5.886;2023-04-24T12:11:03;4.18;;;1.13;;
75377;SDS011;63959;51.960;5.886;2023-04-24T12:13:33;3.78;;;1.10;;
75377;SDS011;63959;51.960;5.886;2023-04-24T12:16:04;4.85;;;1.05;;
75377;SDS011;63959;51.960;5.886;2023-04-24T12:18:33;2.78;;;0.73;;
75377;SDS011;63959;51.960;5.886;2023-04-24T12:23:46;3.95;;;1.10;;
75377;SDS011;63959;51.960;5.886;2023-04-24T12:26:17;3.05;;;1.20;;
75377;SDS011;63959;51.960;5.886;2023-04-24T12:28:49;4.95;;;1.25;;
75377;SDS011;63959;51.960;5.886;2023-04-24T12:31:20;5.10;;;1.42;;
75377;SDS011;63959;51.960;5.886;2023-04-24T12:33:49;2.88;;;0.90;;
75377;SDS011;63959;51.960;5.886;2023-04-24T12:36:17;4.13;;;1.00;;
75377;SDS011;63959;51.960;5.886;2023-04-24T12:38:46;3.70;;;1.40;;
75377;SDS011;63959;51.960;5.886;2023-04-24T12:41:20;4.90;;;1.27;;
75377;SDS011;63959;51.960;5.886;2023-04-24T12:43:52;5.60;;;1.08;;
75377;SDS011;63959;51.960;5.886;2023-04-24T12:46:23;4.32;;;1.27;;
75377;SDS011;63959;51.960;5.886;2023-04-24T12:48:52;3.17;;;1.13;;
75377;SDS011;63959;51.960;5.886;2023-04-24T12:51:21;4.35;;;1.00;;
75377;SDS011;63959;51.960;5.886;2023-04-24T12:53:49;4.97;;;1.33;;
75377;SDS011;63959;51.960;5.886;2023-04-24T12:56:18;4.30;;;0.93;;
75377;SDS011;63959;51.960;5.886;2023-04-24T12:58:47;6.70;;;1.27;;
75377;SDS011;63959;51.960;5.886;2023-04-24T13:01:17;3.22;;;0.90;;
75377;SDS011;63959;51.960;5.886;2023-04-24T13:03:48;3.80;;;1.02;;
75377;SDS011;63959;51.960;5.886;2023-04-24T13:06:17;2.80;;;0.90;;
75377;SDS011;63959;51.960;5.886;2023-04-24T13:08:46;4.07;;;1.30;;
75377;SDS011;63959;51.960;5.886;2023-04-24T13:11:17;6.00;;;1.00;;
75377;SDS011;63959;51.960;5.886;2023-04-24T13:13:47;5.68;;;1.30;;
75377;SDS011;63959;51.960;5.886;2023-04-24T13:16:15;6.20;;;1.33;;
75377;SDS011;63959;51.960;5.886;2023-04-24T13:18:44;4.63;;;1.25;;
75377;SDS011;63959;51.960;5.886;2023-04-24T13:21:15;4.78;;;1.35;;
75377;SDS011;63959;51.960;5.886;2023-04-24T13:23:44;4.80;;;1.30;;
75377;SDS011;63959;51.960;5.886;2023-04-24T13:26:12;6.75;;;1.30;;
75377;SDS011;63959;51.960;5.886;2023-04-24T13:28:41;5.28;;;1.15;;
75377;SDS011;63959;51.960;5.886;2023-04-24T13:31:09;4.50;;;1.48;;
75377;SDS011;63959;51.960;5.886;2023-04-24T13:33:39;4.43;;;1.10;;
75377;SDS011;63959;51.960;5.886;2023-04-24T13:36:07;5.03;;;1.63;;
75377;SDS011;63959;51.960;5.886;2023-04-24T13:38:39;6.10;;;1.40;;
75377;SDS011;63959;51.960;5.886;2023-04-24T13:41:07;5.68;;;1.40;;
75377;SDS011;63959;51.960;5.886;2023-04-24T13:43:36;7.15;;;1.48;;
75377;SDS011;63959;51.960;5.886;2023-04-24T13:46:07;9.75;;;1.60;;
75377;SDS011;63959;51.960;5.886;2023-04-24T13:48:35;12.25;;;2.00;;
75377;SDS011;63959;51.960;5.886;2023-04-24T13:51:04;6.35;;;1.60;;
75377;SDS011;63959;51.960;5.886;2023-04-24T13:53:33;9.57;;;1.83;;
75377;SDS011;63959;51.960;5.886;2023-04-24T13:56:06;6.32;;;1.67;;
75377;SDS011;63959;51.960;5.886;2023-04-24T13:58:35;8.85;;;2.20;;
75377;SDS011;63959;51.960;5.886;2023-04-24T14:01:04;11.90;;;2.58;;
75377;SDS011;63959;51.960;5.886;2023-04-24T14:03:33;11.35;;;2.03;;
75377;SDS011;63959;51.960;5.886;2023-04-24T14:06:02;6.35;;;1.45;;
75377;SDS011;63959;51.960;5.886;2023-04-24T14:08:32;6.25;;;1.52;;
75377;SDS011;63959;51.960;5.886;2023-04-24T14:11:00;7.00;;;1.63;;
75377;SDS011;63959;51.960;5.886;2023-04-24T14:13:32;8.77;;;2.00;;
75377;SDS011;63959;51.960;5.886;2023-04-24T14:16:00;6.95;;;1.75;;
75377;SDS011;63959;51.960;5.886;2023-04-24T14:18:29;6.65;;;1.50;;
75377;SDS011;63959;51.960;5.886;2023-04-24T14:20:58;5.93;;;1.70;;
75377;SDS011;63959;51.960;5.886;2023-04-24T14:23:26;11.40;;;2.25;;
75377;SDS011;63959;51.960;5.886;2023-04-24T14:25:56;9.02;;;2.13;;
75377;SDS011;63959;51.960;5.886;2023-04-24T14:28:25;7.68;;;1.70;;
75377;SDS011;63959;51.960;5.886;2023-04-24T14:30:57;8.65;;;2.03;;
75377;SDS011;63959;51.960;5.886;2023-04-24T14:33:25;11.23;;;2.20;;
75377;SDS011;63959;51.960;5.886;2023-04-24T14:35:54;7.22;;;1.40;;
75377;SDS011;63959;51.960;5.886;2023-04-24T14:38:23;8.55;;;2.05;;
75377;SDS011;63959;51.960;5.886;2023-04-24T14:40:52;7.10;;;2.08;;
75377;SDS011;63959;51.960;5.886;2023-04-24T14:43:21;7.38;;;1.58;;
75377;SDS011;63959;51.960;5.886;2023-04-24T14:45:50;6.53;;;1.80;;
75377;SDS011;63959;51.960;5.886;2023-04-24T14:48:24;8.27;;;1.90;;
75377;SDS011;63959;51.960;5.886;2023-04-24T14:51:13;10.13;;;2.13;;
75377;SDS011;63959;51.960;5.886;2023-04-24T14:53:42;10.50;;;2.42;;
75377;SDS011;63959;51.960;5.886;2023-04-24T14:56:12;4.32;;;1.80;;
75377;SDS011;63959;51.960;5.886;2023-04-24T14:58:40;6.88;;;1.75;;
75377;SDS011;63959;51.960;5.886;2023-04-24T15:01:09;9.15;;;2.38;;
75377;SDS011;63959;51.960;5.886;2023-04-24T15:03:41;7.05;;;2.20;;
75377;SDS011;63959;51.960;5.886;2023-04-24T15:06:10;8.07;;;2.20;;
75377;SDS011;63959;51.960;5.886;2023-04-24T15:08:38;7.70;;;2.47;;
75377;SDS011;63959;51.960;5.886;2023-04-24T15:11:07;7.65;;;2.00;;
75377;SDS011;63959;51.960;5.886;2023-04-24T15:13:36;7.32;;;2.83;;
75377;SDS011;63959;51.960;5.886;2023-04-24T15:16:05;14.13;;;3.38;;
75377;SDS011;63959;51.960;5.886;2023-04-24T15:18:34;7.00;;;1.92;;
75377;SDS011;63959;51.960;5.886;2023-04-24T15:21:05;7.85;;;2.47;;
75377;SDS011;63959;51.960;5.886;2023-04-24T15:23:34;7.90;;;2.13;;
75377;SDS011;63959;51.960;5.886;2023-04-24T15:26:03;7.97;;;2.15;;
75377;SDS011;63959;51.960;5.886;2023-04-24T15:28:31;8.82;;;2.45;;
75377;SDS011;63959;51.960;5.886;2023-04-24T15:31:00;7.80;;;2.30;;
75377;SDS011;63959;51.960;5.886;2023-04-24T15:33:29;8.45;;;2.10;;
75377;SDS011;63959;51.960;5.886;2023-04-24T15:35:58;10.73;;;2.88;;
75377;SDS011;63959;51.960;5.886;2023-04-24T15:38:32;8.80;;;2.30;;
75377;SDS011;63959;51.960;5.886;2023-04-24T15:41:00;5.50;;;1.95;;
75377;SDS011;63959;51.960;5.886;2023-04-24T15:43:29;9.25;;;2.17;;
75377;SDS011;63959;51.960;5.886;2023-04-24T15:45:59;9.10;;;2.60;;
75377;SDS011;63959;51.960;5.886;2023-04-24T15:48:28;10.75;;;3.00;;
75377;SDS011;63959;51.960;5.886;2023-04-24T15:50:57;7.03;;;2.35;;
75377;SDS011;63959;51.960;5.886;2023-04-24T15:53:26;9.23;;;2.55;;
75377;SDS011;63959;51.960;5.886;2023-04-24T15:55:58;10.75;;;2.67;;
75377;SDS011;63959;51.960;5.886;2023-04-24T15:58:27;10.45;;;2.72;;
75377;SDS011;63959;51.960;5.886;2023-04-24T16:00:55;8.43;;;3.33;;
75377;SDS011;63959;51.960;5.886;2023-04-24T16:03:24;7.63;;;2.30;;
75377;SDS011;63959;51.960;5.886;2023-04-24T16:05:53;9.00;;;2.13;;
75377;SDS011;63959;51.960;5.886;2023-04-24T16:08:22;7.38;;;1.98;;
75377;SDS011;63959;51.960;5.886;2023-04-24T16:10:50;5.40;;;1.80;;
75377;SDS011;63959;51.960;5.886;2023-04-24T16:13:22;9.85;;;2.60;;
75377;SDS011;63959;51.960;5.886;2023-04-24T16:15:50;8.82;;;2.30;;
75377;SDS011;63959;51.960;5.886;2023-04-24T16:18:19;8.57;;;2.65;;
75377;SDS011;63959;51.960;5.886;2023-04-24T16:20:48;8.27;;;2.50;;
75377;SDS011;63959;51.960;5.886;2023-04-24T16:23:16;10.25;;;3.03;;
75377;SDS011;63959;51.960;5.886;2023-04-24T16:25:45;7.70;;;2.63;;
75377;SDS011;63959;51.960;5.886;2023-04-24T16:28:14;11.98;;;3.35;;
75377;SDS011;63959;51.960;5.886;2023-04-24T16:30:45;7.38;;;2.35;;
75377;SDS011;63959;51.960;5.886;2023-04-24T16:33:14;10.35;;;3.83;;
75377;SDS011;63959;51.960;5.886;2023-04-24T16:35:43;11.35;;;2.67;;
75377;SDS011;63959;51.960;5.886;2023-04-24T16:38:12;10.55;;;2.63;;
75377;SDS011;63959;51.960;5.886;2023-04-24T16:40:40;9.63;;;2.75;;
75377;SDS011;63959;51.960;5.886;2023-04-24T16:43:10;11.85;;;2.83;;
75377;SDS011;63959;51.960;5.886;2023-04-24T16:45:39;9.25;;;2.55;;
75377;SDS011;63959;51.960;5.886;2023-04-24T16:48:11;9.48;;;2.53;;
75377;SDS011;63959;51.960;5.886;2023-04-24T16:50:39;9.93;;;2.75;;
75377;SDS011;63959;51.960;5.886;2023-04-24T16:53:08;10.15;;;2.85;;
75377;SDS011;63959;51.960;5.886;2023-04-24T16:55:37;12.10;;;3.03;;
75377;SDS011;63959;51.960;5.886;2023-04-24T16:58:05;12.30;;;2.63;;
75377;SDS011;63959;51.960;5.886;2023-04-24T17:00:34;8.85;;;2.53;;
75377;SDS011;63959;51.960;5.886;2023-04-24T17:03:03;12.07;;;2.60;;
75377;SDS011;63959;51.960;5.886;2023-04-24T17:05:34;7.47;;;2.35;;
75377;SDS011;63959;51.960;5.886;2023-04-24T17:08:03;7.55;;;2.45;;
75377;SDS011;63959;51.960;5.886;2023-04-24T17:10:32;8.20;;;3.45;;
75377;SDS011;63959;51.960;5.886;2023-04-24T17:13:00;10.93;;;2.50;;
75377;SDS011;63959;51.960;5.886;2023-04-24T17:15:29;8.75;;;2.30;;
75377;SDS011;63959;51.960;5.886;2023-04-24T17:17:58;10.07;;;2.38;;
75377;SDS011;63959;51.960;5.886;2023-04-24T17:20:27;9.68;;;2.28;;
75377;SDS011;63959;51.960;5.886;2023-04-24T17:22:58;8.73;;;2.85;;
75377;SDS011;63959;51.960;5.886;2023-04-24T17:25:27;12.57;;;3.38;;
75377;SDS011;63959;51.960;5.886;2023-04-24T17:27:55;9.27;;;2.33;;